Time;durP1;ratioP1;P1;durP2;ratioP2;P2;SDS_P1;SDS_P2;PMS_P1;PMS_P2;Temp;Humidity;BMP_temperature;BMP_pressure;BME280_temperature;BME280_humidity;BME280_pressure;Samples;Min_cycle;Max_cycle;Signal;HPM_P1;HPM_P2
2023/01/09 00:00:41;;;;;;;6.28;3.10;;;;;;;;;;5094636;28;20562;-74
2023/01/09 00:03:07;;;;;;;6.18;3.30;;;;;;;;;;5098354;28;20056;-74
2023/01/09 00:05:33;;;;;;;6.35;3.25;;;;;;;;;;5094153;28;20024;-73
2023/01/09 00:07:59;;;;;;;5.22;3.08;;;;;;;;;;5094288;28;20028;-74
2023/01/09 00:10:25;;;;;;;7.43;3.28;;;;;;;;;;5094799;28;20492;-74
2023/01/09 00:12:51;;;;;;;5.03;3.13;;;;;;;;;;5094840;28;20111;-74
2023/01/09 00:15:17;;;;;;;7.50;3.28;;;;;;;;;;5094481;28;20016;-74
2023/01/09 00:17:43;;;;;;;6.53;3.03;;;;;;;;;;5092864;28;20021;-74
2023/01/09 00:20:10;;;;;;;6.90;3.33;;;;;;;;;;5094302;28;20051;-74
2023/01/09 00:22:36;;;;;;;5.85;2.95;;;;;;;;;;5094547;28;20020;-74
2023/01/09 00:25:02;;;;;;;6.60;2.90;;;;;;;;;;5092958;28;20500;-74
2023/01/09 00:27:32;;;;;;;11.20;4.97;;;;;;;;;;5092857;28;20399;-74
2023/01/09 00:29:58;;;;;;;9.75;4.30;;;;;;;;;;5093646;28;20020;-74
2023/01/09 00:32:24;;;;;;;5.13;2.90;;;;;;;;;;5095586;28;20365;-75
2023/01/09 00:34:50;;;;;;;4.97;2.97;;;;;;;;;;5096451;28;20020;-75
2023/01/09 00:37:16;;;;;;;5.70;2.97;;;;;;;;;;5108738;28;20031;-75
2023/01/09 00:39:43;;;;;;;9.93;3.40;;;;;;;;;;5114765;28;20023;-74
2023/01/09 00:42:13;;;;;;;4.80;3.03;;;;;;;;;;5114373;28;20028;-74
2023/01/09 00:44:41;;;;;;;7.70;3.33;;;;;;;;;;5113617;28;20028;-74
2023/01/09 00:47:12;;;;;;;5.45;3.05;;;;;;;;;;5112764;28;20028;-74
2023/01/09 00:49:38;;;;;;;5.72;2.90;;;;;;;;;;5115699;28;20020;-74
2023/01/09 00:52:06;;;;;;;7.35;3.15;;;;;;;;;;5108283;28;20035;-75
2023/01/09 00:54:32;;;;;;;8.23;2.90;;;;;;;;;;5118338;28;20043;-73
2023/01/09 00:56:58;;;;;;;6.18;2.90;;;;;;;;;;5118112;28;20024;-74
2023/01/09 00:59:24;;;;;;;5.82;2.60;;;;;;;;;;5095981;28;20031;-74
2023/01/09 01:01:50;;;;;;;5.13;2.80;;;;;;;;;;5093359;28;20031;-75
2023/01/09 01:09:45;;;;;;;6.45;2.50;;;;;;;;;;5095002;28;20390;-74
2023/01/09 01:12:11;;;;;;;5.35;2.50;;;;;;;;;;5093714;28;20203;-75
2023/01/09 01:14:37;;;;;;;5.53;2.20;;;;;;;;;;5093236;28;20096;-74
2023/01/09 01:17:04;;;;;;;5.00;2.60;;;;;;;;;;5092755;28;20024;-74
2023/01/09 01:19:30;;;;;;;8.55;2.80;;;;;;;;;;5093922;28;20484;-74
2023/01/09 01:21:56;;;;;;;7.40;2.65;;;;;;;;;;5093842;28;20028;-75
2023/01/09 01:24:22;;;;;;;4.10;2.40;;;;;;;;;;5093281;28;20412;-75
2023/01/09 01:26:48;;;;;;;5.18;2.50;;;;;;;;;;5129210;22;20057;-73
2023/01/09 01:29:14;;;;;;;3.38;2.47;;;;;;;;;;5116844;28;20028;-72
2023/01/09 01:31:40;;;;;;;4.20;2.72;;;;;;;;;;5117957;28;20039;-74
2023/01/09 01:34:06;;;;;;;4.45;2.38;;;;;;;;;;5118018;28;20091;-73
2023/01/09 01:36:32;;;;;;;5.80;2.95;;;;;;;;;;5102082;28;20051;-74
2023/01/09 01:38:58;;;;;;;5.38;2.50;;;;;;;;;;5092631;28;20128;-72
2023/01/09 01:41:30;;;;;;;4.65;2.60;;;;;;;;;;5092174;28;20496;-72
2023/01/09 01:44:01;;;;;;;4.57;2.78;;;;;;;;;;5092369;28;20111;-73
2023/01/09 01:46:28;;;;;;;6.57;2.92;;;;;;;;;;5091418;28;20576;-72
2023/01/09 01:49:06;;;;;;;10.50;3.10;;;;;;;;;;5091889;28;20530;-72
2023/01/09 01:51:36;;;;;;;5.95;2.75;;;;;;;;;;5092045;28;20024;-73
2023/01/09 01:54:04;;;;;;;5.85;2.70;;;;;;;;;;5092107;28;20077;-73
2023/01/09 01:56:39;;;;;;;4.00;2.67;;;;;;;;;;5073575;28;20047;-73
2023/01/09 01:59:11;;;;;;;6.53;3.10;;;;;;;;;;5092034;28;20024;-73
2023/01/09 02:01:39;;;;;;;8.48;2.80;;;;;;;;;;5089911;28;20039;-72
2023/01/09 02:04:06;;;;;;;4.32;2.67;;;;;;;;;;5091992;28;20157;-72
2023/01/09 02:06:33;;;;;;;6.60;2.60;;;;;;;;;;5091242;28;20098;-72
2023/01/09 02:09:00;;;;;;;6.20;3.00;;;;;;;;;;5091742;28;20024;-72
2023/01/09 02:11:26;;;;;;;7.22;2.90;;;;;;;;;;5092131;28;20073;-73
2023/01/09 02:13:52;;;;;;;5.07;2.72;;;;;;;;;;5092616;28;20021;-73
2023/01/09 02:16:36;;;;;;;8.52;3.35;;;;;;;;;;5071418;28;20078;-74
2023/01/09 02:19:09;;;;;;;10.98;4.72;;;;;;;;;;5072025;28;20382;-74
2023/01/09 02:21:49;;;;;;;7.88;3.33;;;;;;;;;;5071775;28;20393;-73
2023/01/09 02:24:27;;;;;;;6.40;2.95;;;;;;;;;;5071761;28;20032;-73
2023/01/09 02:26:53;;;;;;;7.30;3.55;;;;;;;;;;5071094;28;20036;-73
2023/01/09 02:29:25;;;;;;;6.15;3.55;;;;;;;;;;5071614;28;20074;-74
2023/01/09 02:32:10;;;;;;;8.77;3.38;;;;;;;;;;5072092;28;20488;-73
2023/01/09 02:34:47;;;;;;;6.82;3.60;;;;;;;;;;5071638;28;20028;-73
2023/01/09 02:37:32;;;;;;;6.70;3.40;;;;;;;;;;5052764;28;20079;-73
2023/01/09 02:40:01;;;;;;;9.00;3.20;;;;;;;;;;5053533;28;20572;-73
2023/01/09 02:42:27;;;;;;;7.45;3.25;;;;;;;;;;5071159;28;20033;-73
2023/01/09 02:44:53;;;;;;;8.18;3.35;;;;;;;;;;5071490;28;20389;-72
2023/01/09 02:47:19;;;;;;;7.82;3.35;;;;;;;;;;5070823;28;20035;-73
2023/01/09 02:49:50;;;;;;;7.03;3.80;;;;;;;;;;5071834;28;20055;-73
2023/01/09 02:52:34;;;;;;;7.50;3.70;;;;;;;;;;5071391;28;20025;-73
2023/01/09 02:55:17;;;;;;;8.32;3.42;;;;;;;;;;5071560;28;20020;-73
2023/01/09 02:57:52;;;;;;;9.43;3.92;;;;;;;;;;5072086;28;20485;-72
2023/01/09 03:00:28;;;;;;;5.43;3.40;;;;;;;;;;5071805;28;20039;-72
2023/01/09 03:03:02;;;;;;;6.65;3.67;;;;;;;;;;5074584;28;20511;-72
2023/01/09 03:05:30;;;;;;;6.82;3.65;;;;;;;;;;5074347;28;20070;-73
2023/01/09 03:08:15;;;;;;;10.38;3.97;;;;;;;;;;5075486;28;20027;-73
2023/01/09 03:10:41;;;;;;;9.90;3.47;;;;;;;;;;5076577;28;20043;-72
2023/01/09 03:13:09;;;;;;;5.38;3.17;;;;;;;;;;5076156;28;20013;-72
2023/01/09 03:15:37;;;;;;;7.47;3.42;;;;;;;;;;5079293;28;20108;-72
2023/01/09 03:18:04;;;;;;;7.28;3.35;;;;;;;;;;5082820;28;20032;-73
2023/01/09 03:20:30;;;;;;;8.63;2.95;;;;;;;;;;5088711;28;20032;-73
2023/01/09 03:23:01;;;;;;;9.60;3.63;;;;;;;;;;5093270;28;20029;-73
2023/01/09 03:25:27;;;;;;;7.70;3.60;;;;;;;;;;5095642;28;20017;-73
2023/01/09 03:28:00;;;;;;;7.22;3.40;;;;;;;;;;5080917;28;20507;-72
2023/01/09 03:30:27;;;;;;;7.15;3.42;;;;;;;;;;5086296;28;20028;-72
2023/01/09 03:32:54;;;;;;;8.35;3.38;;;;;;;;;;5098808;28;20028;-73
2023/01/09 03:35:20;;;;;;;6.53;3.65;;;;;;;;;;5077703;28;20024;-73
2023/01/09 03:37:46;;;;;;;7.78;3.60;;;;;;;;;;5074033;28;20043;-73
2023/01/09 03:40:12;;;;;;;7.95;3.33;;;;;;;;;;5077558;28;20028;-73
2023/01/09 03:42:38;;;;;;;7.47;3.38;;;;;;;;;;5082577;28;20025;-73
2023/01/09 03:45:04;;;;;;;9.57;3.30;;;;;;;;;;5076568;28;20032;-74
2023/01/09 03:47:30;;;;;;;9.65;3.05;;;;;;;;;;5078143;28;20046;-73
2023/01/09 03:49:56;;;;;;;4.72;2.45;;;;;;;;;;5080415;28;20064;-73
2023/01/09 03:52:22;;;;;;;6.68;3.08;;;;;;;;;;5080978;28;20032;-72
2023/01/09 03:54:48;;;;;;;9.75;2.95;;;;;;;;;;5082838;28;20024;-73
2023/01/09 03:57:14;;;;;;;6.68;3.15;;;;;;;;;;5082426;28;20107;-72
2023/01/09 03:59:40;;;;;;;6.18;3.00;;;;;;;;;;5079596;28;20024;-74
2023/01/09 04:02:06;;;;;;;11.88;3.42;;;;;;;;;;5078835;28;20039;-72
2023/01/09 04:04:32;;;;;;;6.50;2.83;;;;;;;;;;5078170;28;20024;-73
2023/01/09 04:06:58;;;;;;;5.65;2.80;;;;;;;;;;5083777;28;20047;-74
2023/01/09 04:09:24;;;;;;;5.50;3.05;;;;;;;;;;5089997;28;20074;-72
2023/01/09 04:11:50;;;;;;;6.28;2.80;;;;;;;;;;5091175;28;20200;-71
2023/01/09 04:14:16;;;;;;;5.63;2.83;;;;;;;;;;5096975;28;20025;-72
2023/01/09 04:16:42;;;;;;;6.28;2.85;;;;;;;;;;5083481;28;20020;-72
2023/01/09 04:19:08;;;;;;;7.00;2.90;;;;;;;;;;5079919;28;20028;-72
2023/01/09 04:21:34;;;;;;;4.82;3.38;;;;;;;;;;5079756;28;20104;-75
2023/01/09 04:24:01;;;;;;;5.03;2.67;;;;;;;;;;5089093;28;20037;-75
2023/01/09 04:26:27;;;;;;;6.53;2.90;;;;;;;;;;5087964;28;20035;-76
2023/01/09 04:28:53;;;;;;;6.30;3.15;;;;;;;;;;5089956;28;20048;-76
2023/01/09 04:31:19;;;;;;;7.20;3.15;;;;;;;;;;5093842;28;20025;-75
2023/01/09 04:33:45;;;;;;;5.07;2.92;;;;;;;;;;5089813;28;20042;-75
2023/01/09 04:36:11;;;;;;;5.97;2.78;;;;;;;;;;5093388;28;20027;-76
2023/01/09 04:38:38;;;;;;;4.75;2.78;;;;;;;;;;5089790;28;20059;-73
2023/01/09 04:41:03;;;;;;;9.18;4.07;;;;;;;;;;5087647;28;20033;-73
2023/01/09 04:43:29;;;;;;;7.88;2.90;;;;;;;;;;5084985;28;20047;-70
2023/01/09 04:45:55;;;;;;;5.93;3.28;;;;;;;;;;5082721;28;20033;-71
2023/01/09 04:48:21;;;;;;;10.07;3.30;;;;;;;;;;5083103;28;20029;-72
2023/01/09 04:50:47;;;;;;;9.10;3.33;;;;;;;;;;5074011;28;20056;-72
2023/01/09 04:53:13;;;;;;;7.82;3.20;;;;;;;;;;5087883;28;20030;-73
2023/01/09 04:55:40;;;;;;;9.65;3.20;;;;;;;;;;5068700;28;20024;-73
2023/01/09 04:58:06;;;;;;;8.85;3.40;;;;;;;;;;5077663;28;20123;-73
2023/01/09 05:00:32;;;;;;;8.45;4.65;;;;;;;;;;5072919;28;20461;-73
2023/01/09 05:02:58;;;;;;;6.25;3.58;;;;;;;;;;5072603;28;20035;-72
2023/01/09 05:05:24;;;;;;;8.95;3.33;;;;;;;;;;5072478;28;20020;-73
2023/01/09 05:07:50;;;;;;;8.32;3.28;;;;;;;;;;5072596;28;20028;-74
2023/01/09 05:10:16;;;;;;;7.25;3.38;;;;;;;;;;5074135;28;20047;-74
2023/01/09 05:12:42;;;;;;;9.38;2.95;;;;;;;;;;5055068;28;20377;-74
2023/01/09 05:15:08;;;;;;;5.93;3.00;;;;;;;;;;5054482;28;20090;-73
2023/01/09 05:17:34;;;;;;;5.30;2.53;;;;;;;;;;5073424;28;20024;-72
2023/01/09 05:20:00;;;;;;;3.78;2.13;;;;;;;;;;5077523;28;20055;-72
2023/01/09 05:22:26;;;;;;;3.92;2.17;;;;;;;;;;5072414;28;20029;-73
2023/01/09 05:24:52;;;;;;;3.20;1.40;;;;;;;;;;5072174;28;20029;-73
2023/01/09 05:27:18;;;;;;;2.38;1.45;;;;;;;;;;5053488;28;20041;-74
2023/01/09 05:29:44;;;;;;;2.35;1.45;;;;;;;;;;5072320;28;20078;-73
2023/01/09 05:32:10;;;;;;;5.25;1.80;;;;;;;;;;5071864;28;20031;-72
2023/01/09 05:34:36;;;;;;;4.18;1.90;;;;;;;;;;5071956;28;20021;-72
2023/01/09 05:37:02;;;;;;;2.72;1.70;;;;;;;;;;5071417;28;20234;-72
2023/01/09 05:39:28;;;;;;;4.93;1.77;;;;;;;;;;5073966;28;20029;-72
2023/01/09 05:41:54;;;;;;;2.60;1.45;;;;;;;;;;5055269;28;20021;-73
2023/01/09 05:44:20;;;;;;;3.45;1.77;;;;;;;;;;5072287;28;20059;-73
2023/01/09 05:46:46;;;;;;;3.55;2.13;;;;;;;;;;5071423;28;20024;-72
2023/01/09 05:49:12;;;;;;;3.78;2.13;;;;;;;;;;5071594;28;20029;-73
2023/01/09 05:51:37;;;;;;;2.70;2.08;;;;;;;;;;5071756;28;20032;-73
2023/01/09 05:54:06;;;;;;;3.60;1.80;;;;;;;;;;5071663;28;20101;-73
2023/01/09 05:56:32;;;;;;;4.75;1.60;;;;;;;;;;5071591;28;20017;-73
2023/01/09 05:58:58;;;;;;;2.80;1.85;;;;;;;;;;5072231;28;20146;-73
2023/01/09 06:01:24;;;;;;;4.18;1.90;;;;;;;;;;5071765;28;20166;-74
2023/01/09 06:03:50;;;;;;;5.00;2.10;;;;;;;;;;5071686;28;20029;-73
2023/01/09 06:06:15;;;;;;;2.83;1.70;;;;;;;;;;5072624;28;20035;-74
2023/01/09 06:08:41;;;;;;;3.40;1.90;;;;;;;;;;5073199;28;20106;-73
2023/01/09 06:11:08;;;;;;;3.20;1.90;;;;;;;;;;5072543;28;20074;-73
2023/01/09 06:13:34;;;;;;;4.50;2.20;;;;;;;;;;5078061;28;20540;-73
2023/01/09 06:16:00;;;;;;;5.55;2.45;;;;;;;;;;5071878;28;20029;-73
2023/01/09 06:18:26;;;;;;;3.13;1.98;;;;;;;;;;5074489;28;20024;-73
2023/01/09 06:20:52;;;;;;;7.22;2.20;;;;;;;;;;5057760;28;20029;-75
2023/01/09 06:23:18;;;;;;;3.95;2.30;;;;;;;;;;5061315;28;20032;-74
2023/01/09 06:25:44;;;;;;;4.28;2.10;;;;;;;;;;5079818;28;20092;-74
2023/01/09 06:28:10;;;;;;;5.45;2.30;;;;;;;;;;5076981;28;20112;-72
2023/01/09 06:30:36;;;;;;;5.88;2.22;;;;;;;;;;5056851;28;20496;-73
2023/01/09 06:33:02;;;;;;;3.97;2.17;;;;;;;;;;5075991;28;20105;-73
2023/01/09 06:35:28;;;;;;;4.70;2.45;;;;;;;;;;5078230;28;20084;-74
2023/01/09 06:37:54;;;;;;;5.28;2.70;;;;;;;;;;5078027;28;20095;-74
2023/01/09 06:40:20;;;;;;;6.60;2.83;;;;;;;;;;5057797;28;20453;-73
2023/01/09 06:42:47;;;;;;;5.72;2.65;;;;;;;;;;5076499;28;20021;-73
2023/01/09 06:45:13;;;;;;;5.97;2.78;;;;;;;;;;5077945;28;20028;-71
2023/01/09 06:47:39;;;;;;;5.32;2.65;;;;;;;;;;5076105;28;20032;-77
2023/01/09 06:50:06;;;;;;;4.35;2.70;;;;;;;;;;5077954;28;20466;-73
2023/01/09 06:52:32;;;;;;;3.78;2.53;;;;;;;;;;5076286;28;20024;-72
2023/01/09 06:54:58;;;;;;;6.28;3.10;;;;;;;;;;5076635;28;20059;-72
2023/01/09 06:57:24;;;;;;;5.95;3.25;;;;;;;;;;5075969;28;20056;-72
2023/01/09 06:59:50;;;;;;;5.78;3.13;;;;;;;;;;5058163;28;20106;-73
2023/01/09 07:02:19;;;;;;;8.07;3.72;;;;;;;;;;5076928;28;20047;-73
2023/01/09 07:04:45;;;;;;;5.45;3.55;;;;;;;;;;5075554;28;20026;-74
2023/01/09 07:07:11;;;;;;;8.15;4.05;;;;;;;;;;5056572;28;20064;-74
2023/01/09 07:09:37;;;;;;;8.35;3.88;;;;;;;;;;5077376;28;20377;-76
2023/01/09 07:12:03;;;;;;;7.13;3.50;;;;;;;;;;5079981;28;20036;-73
2023/01/09 07:14:29;;;;;;;6.10;3.47;;;;;;;;;;5075499;28;20458;-74
2023/01/09 07:16:55;;;;;;;7.78;4.05;;;;;;;;;;5075828;28;20077;-72
2023/01/09 07:19:21;;;;;;;7.07;4.22;;;;;;;;;;5076022;28;20039;-76
2023/01/09 07:21:47;;;;;;;5.60;4.13;;;;;;;;;;5075038;28;20039;-72
2023/01/09 07:24:13;;;;;;;5.68;4.30;;;;;;;;;;5075076;28;20032;-72
2023/01/09 07:26:39;;;;;;;5.70;4.22;;;;;;;;;;5105524;23;20056;-76
2023/01/09 07:29:05;;;;;;;6.10;4.50;;;;;;;;;;5097635;28;20050;-75
2023/01/09 07:31:31;;;;;;;7.72;4.90;;;;;;;;;;5098636;28;20120;-75
2023/01/09 07:33:57;;;;;;;7.15;5.28;;;;;;;;;;5079300;28;20028;-76
2023/01/09 07:36:23;;;;;;;7.50;5.38;;;;;;;;;;5101143;28;20024;-76
2023/01/09 07:38:49;;;;;;;11.77;5.63;;;;;;;;;;5100229;28;20108;-76
2023/01/09 07:41:15;;;;;;;9.38;6.55;;;;;;;;;;5097120;28;20031;-78
2023/01/09 07:43:41;;;;;;;9.90;6.55;;;;;;;;;;5096506;28;20027;-76
2023/01/09 07:46:07;;;;;;;9.98;6.97;;;;;;;;;;5095044;28;20093;-75
2023/01/09 07:48:33;;;;;;;9.55;7.45;;;;;;;;;;5097393;28;20562;-77
2023/01/09 07:50:59;;;;;;;13.30;7.88;;;;;;;;;;5077386;28;20116;-76
2023/01/09 07:53:25;;;;;;;12.95;8.20;;;;;;;;;;5093863;28;20523;-76
2023/01/09 07:55:51;;;;;;;12.65;8.90;;;;;;;;;;5094881;28;20384;-76
2023/01/09 07:58:17;;;;;;;13.35;8.95;;;;;;;;;;5077024;28;20369;-75
2023/01/09 08:00:43;;;;;;;12.73;8.93;;;;;;;;;;5095236;28;20042;-75
2023/01/09 08:03:09;;;;;;;12.30;8.30;;;;;;;;;;5094829;28;20089;-76
2023/01/09 08:05:35;;;;;;;14.75;8.45;;;;;;;;;;5076541;28;20027;-76
2023/01/09 08:08:01;;;;;;;9.95;8.00;;;;;;;;;;5095046;28;20020;-76
2023/01/09 08:10:27;;;;;;;12.93;8.57;;;;;;;;;;5076848;28;20035;-79
2023/01/09 08:12:53;;;;;;;14.60;8.88;;;;;;;;;;5094631;28;20103;-77
2023/01/09 08:15:19;;;;;;;12.70;8.27;;;;;;;;;;5076142;28;20067;-75
2023/01/09 08:17:45;;;;;;;15.73;8.48;;;;;;;;;;5094104;28;20031;-76
2023/01/09 08:20:12;;;;;;;14.95;8.95;;;;;;;;;;5094860;28;20024;-76
2023/01/09 08:22:41;;;;;;;16.48;9.88;;;;;;;;;;5076454;28;20024;-76
2023/01/09 08:25:07;;;;;;;15.88;9.48;;;;;;;;;;5096409;28;20065;-75
2023/01/09 08:27:33;;;;;;;18.85;9.55;;;;;;;;;;5095500;28;20035;-77
2023/01/09 08:29:59;;;;;;;16.77;10.23;;;;;;;;;;5095401;28;20417;-75
2023/01/09 08:32:25;;;;;;;17.55;9.98;;;;;;;;;;5094999;28;20073;-78
2023/01/09 08:34:52;;;;;;;18.75;10.27;;;;;;;;;;5100649;28;20024;-78
2023/01/09 08:37:18;;;;;;;16.38;9.95;;;;;;;;;;5093927;28;20430;-78
2023/01/09 08:39:44;;;;;;;17.42;10.35;;;;;;;;;;5095856;28;20031;-74
2023/01/09 08:48:00;;;;;;;21.08;9.90;;;;;;;;;;5027961;28;20050;-76
2023/01/09 08:50:26;;;;;;;16.50;10.05;;;;;;;;;;5011368;28;20030;-77
2023/01/09 08:52:52;;;;;;;18.40;9.85;;;;;;;;;;5042139;28;20043;-75
2023/01/09 08:55:17;;;;;;;17.02;9.60;;;;;;;;;;5076349;28;20017;-79
2023/01/09 08:57:48;;;;;;;21.02;9.88;;;;;;;;;;5093825;28;20818;-77
2023/01/09 09:00:14;;;;;;;24.15;10.50;;;;;;;;;;5094254;28;20469;-79
2023/01/09 09:02:40;;;;;;;24.25;10.18;;;;;;;;;;5093973;28;20345;-78
2023/01/09 09:05:06;;;;;;;18.70;9.90;;;;;;;;;;5095425;28;20028;-76
2023/01/09 09:07:32;;;;;;;20.67;9.80;;;;;;;;;;5091609;28;20098;-77
2023/01/09 09:09:58;;;;;;;23.42;9.43;;;;;;;;;;5096866;28;20061;-78
2023/01/09 09:12:24;;;;;;;24.20;9.90;;;;;;;;;;5106529;28;20118;-77
2023/01/09 09:17:35;;;;;;;16.05;7.57;;;;;;;;;;5095847;28;20047;-76
2023/01/09 09:20:01;;;;;;;14.73;7.57;;;;;;;;;;5095009;28;20053;-76
2023/01/09 09:22:27;;;;;;;14.07;6.55;;;;;;;;;;5094440;28;20077;-76
2023/01/09 09:24:53;;;;;;;14.77;7.35;;;;;;;;;;5093903;28;20028;-76
2023/01/09 09:27:19;;;;;;;15.65;5.90;;;;;;;;;;5091465;28;20503;-76
2023/01/09 09:29:45;;;;;;;15.35;5.90;;;;;;;;;;5093496;28;20043;-75
2023/01/09 09:32:11;;;;;;;14.25;5.68;;;;;;;;;;5093437;28;20477;-76
2023/01/09 09:34:37;;;;;;;17.02;7.20;;;;;;;;;;5092103;28;20078;-76
2023/01/09 09:37:03;;;;;;;17.48;7.95;;;;;;;;;;5095671;28;20030;-77
2023/01/09 09:39:29;;;;;;;16.52;7.55;;;;;;;;;;5092544;28;20113;-74
2023/01/09 09:45:17;;;;;;;19.17;7.75;;;;;;;;;;5097035;28;20037;-77
2023/01/09 09:48:01;;;;;;;21.08;8.80;;;;;;;;;;5101403;28;20038;-78
2023/01/09 09:50:46;;;;;;;21.83;10.10;;;;;;;;;;5102067;28;20020;-75
2023/01/09 09:53:31;;;;;;;23.00;10.88;;;;;;;;;;5105841;28;20020;-77
2023/01/09 09:55:57;;;;;;;17.70;8.82;;;;;;;;;;5105884;28;20042;-76
2023/01/09 09:58:28;;;;;;;26.35;9.80;;;;;;;;;;5102527;28;20032;-77
2023/01/09 10:00:55;;;;;;;24.30;10.05;;;;;;;;;;5099792;28;20031;-76
2023/01/09 10:03:27;;;;;;;23.75;10.60;;;;;;;;;;5101058;28;20051;-78
2023/01/09 10:05:53;;;;;;;18.55;9.40;;;;;;;;;;5093809;28;20480;-75
2023/01/09 10:08:38;;;;;;;17.45;9.43;;;;;;;;;;5097529;28;20051;-75
2023/01/09 10:11:08;;;;;;;22.08;9.65;;;;;;;;;;5097218;28;20031;-76
2023/01/09 10:16:27;;;;;;;20.75;9.00;;;;;;;;;;5096694;28;20035;-75
2023/01/09 10:18:56;;;;;;;23.90;8.55;;;;;;;;;;5096848;28;20469;-76
2023/01/09 10:21:29;;;;;;;18.27;7.97;;;;;;;;;;5104894;28;20476;-77
2023/01/09 10:24:03;;;;;;;23.83;9.02;;;;;;;;;;5104986;28;20057;-77
2023/01/09 10:26:29;;;;;;;;;;;;;;;;;;5102093;28;20095;-78
2023/01/09 10:28:58;;;;;;;26.95;9.68;;;;;;;;;;5097589;28;19943;-77
2023/01/09 10:31:43;;;;;;;23.92;8.90;;;;;;;;;;5099797;28;20173;-75
2023/01/09 10:34:15;;;;;;;21.55;9.52;;;;;;;;;;5102298;28;20020;-75
2023/01/09 10:37:00;;;;;;;27.33;9.02;;;;;;;;;;5096936;28;20038;-76
2023/01/09 10:39:31;;;;;;;54.40;22.88;;;;;;;;;;5099762;28;20028;-76
2023/01/09 10:41:59;;;;;;;19.50;9.75;;;;;;;;;;5099402;28;20024;-77
2023/01/09 10:44:37;;;;;;;27.35;9.77;;;;;;;;;;5098880;28;20384;-77
2023/01/09 10:47:05;;;;;;;22.10;9.25;;;;;;;;;;5097827;28;20028;-77
2023/01/09 10:49:31;;;;;;;25.77;10.23;;;;;;;;;;5101608;28;20031;-77
2023/01/09 10:52:04;;;;;;;21.88;9.48;;;;;;;;;;5099833;28;20102;-79
2023/01/09 10:54:30;;;;;;;19.80;9.48;;;;;;;;;;5100879;28;20035;-78
2023/01/09 10:57:00;;;;;;;25.85;9.48;;;;;;;;;;5096433;28;20473;-79
2023/01/09 10:59:26;;;;;;;21.35;9.70;;;;;;;;;;5097366;28;20499;-77
2023/01/09 11:01:53;;;;;;;22.95;9.10;;;;;;;;;;5098093;28;20031;-75
2023/01/09 11:04:23;;;;;;;18.10;8.82;;;;;;;;;;5097772;28;20024;-78
2023/01/09 11:07:07;;;;;;;24.25;8.82;;;;;;;;;;5097469;28;20401;-77
2023/01/09 11:09:52;;;;;;;18.48;9.07;;;;;;;;;;5098151;28;20388;-77
2023/01/09 11:12:25;;;;;;;19.83;8.13;;;;;;;;;;5096603;28;20028;-76
2023/01/09 11:14:51;;;;;;;26.15;7.90;;;;;;;;;;5096572;28;20028;-78
2023/01/09 11:17:21;;;;;;;25.63;8.40;;;;;;;;;;5095265;28;20028;-77
2023/01/09 11:20:05;;;;;;;23.98;8.82;;;;;;;;;;5095388;28;20029;-76
2023/01/09 11:22:41;;;;;;;24.45;8.40;;;;;;;;;;5096813;28;20373;-76
2023/01/09 11:25:11;;;;;;;25.35;6.72;;;;;;;;;;5099087;28;20388;-77
2023/01/09 11:27:37;;;;;;;18.92;6.60;;;;;;;;;;5104334;28;20046;-76
2023/01/09 11:30:03;;;;;;;19.10;6.00;;;;;;;;;;5102803;28;20024;-77
2023/01/09 11:32:29;;;;;;;19.27;5.95;;;;;;;;;;5096348;28;20054;-78
2023/01/09 11:34:55;;;;;;;19.02;6.07;;;;;;;;;;5095679;28;20077;-78
2023/01/09 11:37:25;;;;;;;19.83;5.10;;;;;;;;;;5094578;28;20465;-78
2023/01/09 11:39:51;;;;;;;25.55;6.32;;;;;;;;;;5095378;28;20035;-77
2023/01/09 11:45:17;;;;;;;20.25;6.63;;;;;;;;;;5095682;28;20035;-76
2023/01/09 11:47:43;;;;;;;15.15;5.88;;;;;;;;;;5094758;28;20060;-78
2023/01/09 11:50:17;;;;;;;13.75;5.70;;;;;;;;;;5095815;28;20020;-76
2023/01/09 11:52:43;;;;;;;19.05;5.72;;;;;;;;;;5096448;28;20031;-77
2023/01/09 11:55:11;;;;;;;20.55;5.85;;;;;;;;;;5096003;28;20024;-76
2023/01/09 11:57:37;;;;;;;20.75;5.95;;;;;;;;;;5095566;28;20028;-76
2023/01/09 12:00:09;;;;;;;25.15;6.78;;;;;;;;;;5097783;28;20032;-75
2023/01/09 12:02:49;;;;;;;12.98;5.40;;;;;;;;;;5096132;28;20024;-76
2023/01/09 12:05:34;;;;;;;23.48;6.63;;;;;;;;;;5095938;28;20370;-78
2023/01/09 12:08:19;;;;;;;17.55;5.88;;;;;;;;;;5097312;28;20028;-78
2023/01/09 12:10:58;;;;;;;26.95;5.70;;;;;;;;;;5096238;28;20027;-76
2023/01/09 12:13:33;;;;;;;18.52;5.32;;;;;;;;;;5099513;28;20518;-76
2023/01/09 12:16:14;;;;;;;21.67;5.20;;;;;;;;;;5104163;28;20028;-76
2023/01/09 12:18:48;;;;;;;23.58;5.43;;;;;;;;;;5100767;28;20357;-76
2023/01/09 12:21:14;;;;;;;20.85;5.28;;;;;;;;;;5096211;28;20145;-75
2023/01/09 12:23:47;;;;;;;16.15;5.15;;;;;;;;;;5096496;28;20049;-76
2023/01/09 12:26:19;;;;;;;22.88;5.20;;;;;;;;;;5101886;28;20039;-76
2023/01/09 12:29:04;;;;;;;28.75;5.90;;;;;;;;;;5104790;28;20058;-76
2023/01/09 12:31:49;;;;;;;14.38;5.57;;;;;;;;;;5091233;28;20028;-76
2023/01/09 12:34:30;;;;;;;28.20;6.18;;;;;;;;;;5109028;28;20024;-78
2023/01/09 12:37:16;;;;;;;21.27;5.57;;;;;;;;;;5094636;28;20053;-79
2023/01/09 12:40:02;;;;;;;22.70;5.60;;;;;;;;;;5116770;28;20058;-78
2023/01/09 12:42:31;;;;;;;20.95;5.80;;;;;;;;;;5116797;28;20033;-79
2023/01/09 12:45:04;;;;;;;23.23;5.70;;;;;;;;;;5099811;28;20028;-78
2023/01/09 12:47:36;;;;;;;20.52;5.78;;;;;;;;;;5113594;28;20092;-79
2023/01/09 12:50:20;;;;;;;25.77;5.45;;;;;;;;;;5112142;28;20052;-79
2023/01/09 12:52:48;;;;;;;34.08;7.72;;;;;;;;;;5112795;28;20083;-80
2023/01/09 12:55:19;;;;;;;23.45;6.07;;;;;;;;;;5111913;28;20079;-79
2023/01/09 12:57:50;;;;;;;23.73;6.97;;;;;;;;;;5108402;28;20038;-79
2023/01/09 13:00:18;;;;;;;20.67;6.82;;;;;;;;;;5110846;28;20080;-78
2023/01/09 13:02:43;;;;;;;19.50;6.75;;;;;;;;;;5113580;28;20023;-78
2023/01/09 13:05:16;;;;;;;17.23;6.40;;;;;;;;;;5118134;28;20024;-78
2023/01/09 13:07:44;;;;;;;32.10;7.90;;;;;;;;;;5117940;28;20039;-80
2023/01/09 13:10:43;;;;;;;26.02;7.95;;;;;;;;;;5118569;28;20011;-79
2023/01/09 13:13:38;;;;;;;22.70;7.97;;;;;;;;;;5118689;28;20028;-78
2023/01/09 13:16:04;;;;;;;;;;;;;;;;;;5065136;28;20096;-78
2023/01/09 13:18:39;;;;;;;23.25;8.65;;;;;;;;;;5104766;28;19904;-76
2023/01/09 13:21:06;;;;;;;23.23;8.10;;;;;;;;;;5095876;28;20027;-74
2023/01/09 13:23:44;;;;;;;26.08;7.82;;;;;;;;;;5082839;28;20028;-76
2023/01/09 13:26:15;;;;;;;24.52;8.00;;;;;;;;;;5103054;23;20063;-73
2023/01/09 13:28:51;;;;;;;26.27;7.95;;;;;;;;;;5073018;28;20124;-74
2023/01/09 13:31:24;;;;;;;34.28;9.63;;;;;;;;;;5076270;28;20028;-72
2023/01/09 13:33:55;;;;;;;31.02;11.82;;;;;;;;;;5069166;28;20013;-72
2023/01/09 13:36:24;;;;;;;22.45;8.88;;;;;;;;;;5061911;28;20078;-72
2023/01/09 13:38:50;;;;;;;27.90;9.48;;;;;;;;;;5061806;28;20024;-73
2023/01/09 13:44:01;;;;;;;21.48;8.95;;;;;;;;;;5053086;28;20059;-73
2023/01/09 13:46:34;;;;;;;21.83;9.90;;;;;;;;;;5051782;28;20033;-72
2023/01/09 13:49:00;;;;;;;21.48;8.68;;;;;;;;;;5053304;28;20078;-72
2023/01/09 13:51:37;;;;;;;21.20;7.90;;;;;;;;;;5053468;28;20025;-72
2023/01/09 13:54:03;;;;;;;22.17;7.88;;;;;;;;;;5052917;28;20540;-73
2023/01/09 13:56:29;;;;;;;18.33;7.57;;;;;;;;;;5051476;28;20144;-74
2023/01/09 13:58:55;;;;;;;31.20;8.32;;;;;;;;;;5053172;28;20071;-73
2023/01/09 14:01:24;;;;;;;22.85;8.02;;;;;;;;;;5055747;28;20025;-72
2023/01/09 14:04:08;;;;;;;22.00;7.93;;;;;;;;;;5052708;28;20025;-73
2023/01/09 14:06:35;;;;;;;18.00;8.43;;;;;;;;;;5052101;28;20033;-76
2023/01/09 14:09:21;;;;;;;28.38;8.13;;;;;;;;;;5063704;28;20025;-74
2023/01/09 14:11:47;;;;;;;22.13;9.75;;;;;;;;;;5059942;28;20021;-74
2023/01/09 14:14:22;;;;;;;22.63;7.03;;;;;;;;;;5053911;28;20079;-71
2023/01/09 14:16:48;;;;;;;26.92;8.13;;;;;;;;;;5052790;28;20154;-73
2023/01/09 14:19:14;;;;;;;20.13;7.72;;;;;;;;;;5053201;28;20025;-74
2023/01/09 14:21:44;;;;;;;28.70;10.88;;;;;;;;;;5051472;28;20555;-74
2023/01/09 14:24:11;;;;;;;23.83;9.45;;;;;;;;;;5054175;28;20389;-72
2023/01/09 14:26:42;;;;;;;23.45;9.23;;;;;;;;;;5052285;28;20369;-72
2023/01/09 14:29:27;;;;;;;23.58;7.53;;;;;;;;;;5053954;28;20032;-72
2023/01/09 14:31:53;;;;;;;22.15;7.47;;;;;;;;;;5057917;28;20032;-73
2023/01/09 14:34:30;;;;;;;22.50;7.03;;;;;;;;;;5065151;28;20033;-72
2023/01/09 14:36:58;;;;;;;20.25;6.60;;;;;;;;;;5064524;28;20029;-73
2023/01/09 14:39:24;;;;;;;22.70;7.40;;;;;;;;;;5068318;28;20032;-74
2023/01/09 14:42:05;;;;;;;21.38;7.05;;;;;;;;;;5073476;28;20033;-72
2023/01/09 14:44:31;;;;;;;20.65;7.72;;;;;;;;;;5063743;28;20389;-73
2023/01/09 14:47:05;;;;;;;19.58;6.15;;;;;;;;;;5051106;28;20103;-73
2023/01/09 14:49:37;;;;;;;22.40;6.63;;;;;;;;;;5052728;28;20025;-72
2023/01/09 14:52:07;;;;;;;19.42;5.75;;;;;;;;;;5052759;28;20187;-73
2023/01/09 14:54:36;;;;;;;15.18;5.50;;;;;;;;;;5060127;28;20024;-73
2023/01/09 14:57:02;;;;;;;17.98;6.15;;;;;;;;;;5057461;28;20381;-73
2023/01/09 14:59:28;;;;;;;11.88;5.25;;;;;;;;;;5055524;28;20029;-72
2023/01/09 15:01:56;;;;;;;15.52;5.25;;;;;;;;;;5064000;28;20366;-73
2023/01/09 15:04:25;;;;;;;15.63;5.25;;;;;;;;;;5059075;28;20367;-72
2023/01/09 15:06:51;;;;;;;15.15;5.35;;;;;;;;;;5054822;28;20036;-74
2023/01/09 15:09:23;;;;;;;21.40;5.65;;;;;;;;;;5056498;28;20025;-73
2023/01/09 15:11:49;;;;;;;13.18;5.47;;;;;;;;;;5061746;28;20079;-73